sensor_id;sensor_type;location;lat;lon;timestamp;temperature;humidity
14192;DHT22;7177;48.572;7.838;2022-07-09T00:01:24;15.70;99.90
14192;DHT22;7177;48.572;7.838;2022-07-09T00:03:50;15.70;99.90
14192;DHT22;7177;48.572;7.838;2022-07-09T00:06:17;15.60;99.90
14192;DHT22;7177;48.572;7.838;2022-07-09T00:08:43;15.60;99.90
14192;DHT22;7177;48.572;7.838;2022-07-09T00:11:08;15.60;99.90
14192;DHT22;7177;48.572;7.838;2022-07-09T00:13:34;15.60;99.90
14192;DHT22;7177;48.572;7.838;2022-07-09T00:15:59;15.70;99.90
14192;DHT22;7177;48.572;7.838;2022-07-09T00:18:25;15.80;99.90
14192;DHT22;7177;48.572;7.838;2022-07-09T00:20:50;15.80;99.90
14192;DHT22;7177;48.572;7.838;2022-07-09T00:23:16;15.90;99.90
14192;DHT22;7177;48.572;7.838;2022-07-09T00:25:41;15.90;99.90
14192;DHT22;7177;48.572;7.838;2022-07-09T00:28:07;15.90;99.90
14192;DHT22;7177;48.572;7.838;2022-07-09T00:30:33;16.00;99.90
14192;DHT22;7177;48.572;7.838;2022-07-09T00:32:58;15.90;99.90
14192;DHT22;7177;48.572;7.838;2022-07-09T00:35:24;15.90;99.90
14192;DHT22;7177;48.572;7.838;2022-07-09T00:37:49;16.00;99.90
14192;DHT22;7177;48.572;7.838;2022-07-09T00:40:15;16.00;99.90
14192;DHT22;7177;48.572;7.838;2022-07-09T00:42:40;16.00;99.90
14192;DHT22;7177;48.572;7.838;2022-07-09T00:47:32;15.80;99.90
14192;DHT22;7177;48.572;7.838;2022-07-09T00:49:58;15.80;99.90
14192;DHT22;7177;48.572;7.838;2022-07-09T00:52:24;15.70;99.90
14192;DHT22;7177;48.572;7.838;2022-07-09T00:54:50;15.70;99.90
14192;DHT22;7177;48.572;7.838;2022-07-09T00:57:16;15.60;99.90
14192;DHT22;7177;48.572;7.838;2022-07-09T00:59:42;15.60;99.90
14192;DHT22;7177;48.572;7.838;2022-07-09T01:02:08;15.50;99.90
14192;DHT22;7177;48.572;7.838;2022-07-09T01:04:34;15.50;99.90
14192;DHT22;7177;48.572;7.838;2022-07-09T01:07:00;15.40;99.90
14192;DHT22;7177;48.572;7.838;2022-07-09T01:09:27;15.40;99.90
14192;DHT22;7177;48.572;7.838;2022-07-09T01:11:53;15.40;99.90
14192;DHT22;7177;48.572;7.838;2022-07-09T01:14:19;15.40;99.90
14192;DHT22;7177;48.572;7.838;2022-07-09T01:16:44;15.40;99.90
14192;DHT22;7177;48.572;7.838;2022-07-09T01:19:10;15.30;99.90
14192;DHT22;7177;48.572;7.838;2022-07-09T01:21:35;15.30;99.90
14192;DHT22;7177;48.572;7.838;2022-07-09T01:24:01;15.10;99.90
14192;DHT22;7177;48.572;7.838;2022-07-09T01:26:27;15.00;99.90
14192;DHT22;7177;48.572;7.838;2022-07-09T01:28:53;15.00;99.90
14192;DHT22;7177;48.572;7.838;2022-07-09T01:31:19;14.80;99.90
14192;DHT22;7177;48.572;7.838;2022-07-09T01:33:45;14.80;99.90
14192;DHT22;7177;48.572;7.838;2022-07-09T01:36:11;14.80;99.90
14192;DHT22;7177;48.572;7.838;2022-07-09T01:38:36;14.80;99.90
14192;DHT22;7177;48.572;7.838;2022-07-09T01:41:02;14.80;99.90
14192;DHT22;7177;48.572;7.838;2022-07-09T01:43:28;14.70;99.90
14192;DHT22;7177;48.572;7.838;2022-07-09T01:45:53;14.70;99.90
14192;DHT22;7177;48.572;7.838;2022-07-09T01:48:19;14.40;99.90
14192;DHT22;7177;48.572;7.838;2022-07-09T01:50:44;14.30;99.90
14192;DHT22;7177;48.572;7.838;2022-07-09T01:53:10;14.30;99.90
14192;DHT22;7177;48.572;7.838;2022-07-09T01:58:02;14.20;99.90
14192;DHT22;7177;48.572;7.838;2022-07-09T02:00:27;14.30;99.90
14192;DHT22;7177;48.572;7.838;2022-07-09T02:02:54;14.30;99.90
14192;DHT22;7177;48.572;7.838;2022-07-09T02:05:20;14.30;99.90
14192;DHT22;7177;48.572;7.838;2022-07-09T02:07:46;14.40;99.90
14192;DHT22;7177;48.572;7.838;2022-07-09T02:10:12;14.50;99.90
14192;DHT22;7177;48.572;7.838;2022-07-09T02:12:37;14.50;99.90
14192;DHT22;7177;48.572;7.838;2022-07-09T02:15:03;14.50;99.90
14192;DHT22;7177;48.572;7.838;2022-07-09T02:17:30;14.70;99.90
14192;DHT22;7177;48.572;7.838;2022-07-09T02:19:55;14.70;99.90
14192;DHT22;7177;48.572;7.838;2022-07-09T02:22:21;14.80;99.90
14192;DHT22;7177;48.572;7.838;2022-07-09T02:24:46;14.80;99.90
14192;DHT22;7177;48.572;7.838;2022-07-09T02:27:12;14.50;99.90
14192;DHT22;7177;48.572;7.838;2022-07-09T02:32:04;14.40;99.90
14192;DHT22;7177;48.572;7.838;2022-07-09T02:34:30;14.30;99.90
14192;DHT22;7177;48.572;7.838;2022-07-09T02:36:55;14.20;99.90
14192;DHT22;7177;48.572;7.838;2022-07-09T02:39:21;14.10;99.90
14192;DHT22;7177;48.572;7.838;2022-07-09T02:41:46;14.10;99.90
14192;DHT22;7177;48.572;7.838;2022-07-09T02:44:12;13.80;99.90
14192;DHT22;7177;48.572;7.838;2022-07-09T02:46:37;13.90;99.90
14192;DHT22;7177;48.572;7.838;2022-07-09T02:53:55;13.70;99.90
14192;DHT22;7177;48.572;7.838;2022-07-09T02:56:21;13.60;99.90
14192;DHT22;7177;48.572;7.838;2022-07-09T02:58:46;13.70;99.90
14192;DHT22;7177;48.572;7.838;2022-07-09T03:01:12;13.60;99.90
14192;DHT22;7177;48.572;7.838;2022-07-09T03:03:37;13.70;99.90
14192;DHT22;7177;48.572;7.838;2022-07-09T03:06:04;13.70;99.90
14192;DHT22;7177;48.572;7.838;2022-07-09T03:08:31;13.70;99.90
14192;DHT22;7177;48.572;7.838;2022-07-09T03:10:56;13.80;99.90
14192;DHT22;7177;48.572;7.838;2022-07-09T03:13:22;13.70;99.90
14192;DHT22;7177;48.572;7.838;2022-07-09T03:15:47;13.70;99.90
14192;DHT22;7177;48.572;7.838;2022-07-09T03:18:14;13.70;99.90
14192;DHT22;7177;48.572;7.838;2022-07-09T03:20:40;13.70;99.90
14192;DHT22;7177;48.572;7.838;2022-07-09T03:25:31;13.60;99.90
14192;DHT22;7177;48.572;7.838;2022-07-09T03:27:57;13.60;99.90
14192;DHT22;7177;48.572;7.838;2022-07-09T03:30:23;13.60;99.90
14192;DHT22;7177;48.572;7.838;2022-07-09T03:32:49;13.60;99.90
14192;DHT22;7177;48.572;7.838;2022-07-09T03:35:15;13.60;99.90
14192;DHT22;7177;48.572;7.838;2022-07-09T03:37:40;13.40;99.90
14192;DHT22;7177;48.572;7.838;2022-07-09T03:40:07;13.40;99.90
14192;DHT22;7177;48.572;7.838;2022-07-09T03:45:01;13.40;99.90
14192;DHT22;7177;48.572;7.838;2022-07-09T03:47:26;13.40;99.90
14192;DHT22;7177;48.572;7.838;2022-07-09T03:49:52;13.30;99.90
14192;DHT22;7177;48.572;7.838;2022-07-09T03:52:17;13.20;99.90
14192;DHT22;7177;48.572;7.838;2022-07-09T03:54:43;13.20;99.90
14192;DHT22;7177;48.572;7.838;2022-07-09T03:57:10;13.20;99.90
14192;DHT22;7177;48.572;7.838;2022-07-09T03:59:35;13.30;99.90
14192;DHT22;7177;48.572;7.838;2022-07-09T04:02:01;13.40;99.90
14192;DHT22;7177;48.572;7.838;2022-07-09T04:04:28;13.40;99.90
14192;DHT22;7177;48.572;7.838;2022-07-09T04:06:53;13.50;99.90
14192;DHT22;7177;48.572;7.838;2022-07-09T04:09:21;13.50;99.90
14192;DHT22;7177;48.572;7.838;2022-07-09T04:11:46;13.60;99.90
14192;DHT22;7177;48.572;7.838;2022-07-09T04:14:12;13.60;99.90
14192;DHT22;7177;48.572;7.838;2022-07-09T04:16:39;13.60;99.90
14192;DHT22;7177;48.572;7.838;2022-07-09T04:19:05;13.70;99.90
14192;DHT22;7177;48.572;7.838;2022-07-09T04:21:31;13.50;99.90
14192;DHT22;7177;48.572;7.838;2022-07-09T04:23:56;13.40;99.90
14192;DHT22;7177;48.572;7.838;2022-07-09T04:26:21;13.50;99.90
14192;DHT22;7177;48.572;7.838;2022-07-09T04:28:49;13.60;99.90
14192;DHT22;7177;48.572;7.838;2022-07-09T04:31:14;13.70;99.90
14192;DHT22;7177;48.572;7.838;2022-07-09T04:33:44;13.70;99.90
14192;DHT22;7177;48.572;7.838;2022-07-09T04:36:10;13.80;99.90
14192;DHT22;7177;48.572;7.838;2022-07-09T04:38:36;13.80;99.90
14192;DHT22;7177;48.572;7.838;2022-07-09T04:41:01;14.00;99.90
14192;DHT22;7177;48.572;7.838;2022-07-09T04:43:27;14.10;99.90
14192;DHT22;7177;48.572;7.838;2022-07-09T04:45:52;14.20;99.90
14192;DHT22;7177;48.572;7.838;2022-07-09T04:48:18;14.40;99.90
14192;DHT22;7177;48.572;7.838;2022-07-09T04:50:43;14.50;99.90
14192;DHT22;7177;48.572;7.838;2022-07-09T04:53:09;14.60;99.90
14192;DHT22;7177;48.572;7.838;2022-07-09T04:55:34;14.80;99.90
14192;DHT22;7177;48.572;7.838;2022-07-09T04:58:00;14.90;99.90
14192;DHT22;7177;48.572;7.838;2022-07-09T05:00:25;15.10;99.90
14192;DHT22;7177;48.572;7.838;2022-07-09T05:02:51;15.20;99.90
14192;DHT22;7177;48.572;7.838;2022-07-09T05:05:17;15.60;99.90
14192;DHT22;7177;48.572;7.838;2022-07-09T05:07:47;15.90;99.90
14192;DHT22;7177;48.572;7.838;2022-07-09T05:10:12;16.20;99.90
14192;DHT22;7177;48.572;7.838;2022-07-09T05:12:38;16.40;99.90
14192;DHT22;7177;48.572;7.838;2022-07-09T05:15:04;16.70;99.90
14192;DHT22;7177;48.572;7.838;2022-07-09T05:17:34;16.90;99.90
14192;DHT22;7177;48.572;7.838;2022-07-09T05:20:00;17.00;99.90
14192;DHT22;7177;48.572;7.838;2022-07-09T05:22:25;17.20;99.90
14192;DHT22;7177;48.572;7.838;2022-07-09T05:24:51;17.40;99.90
14192;DHT22;7177;48.572;7.838;2022-07-09T05:27:16;17.30;99.90
14192;DHT22;7177;48.572;7.838;2022-07-09T05:29:42;17.50;99.90
14192;DHT22;7177;48.572;7.838;2022-07-09T05:32:07;17.60;99.90
14192;DHT22;7177;48.572;7.838;2022-07-09T05:34:33;17.60;99.90
14192;DHT22;7177;48.572;7.838;2022-07-09T05:36:58;17.60;99.90
14192;DHT22;7177;48.572;7.838;2022-07-09T05:39:24;17.80;99.90
14192;DHT22;7177;48.572;7.838;2022-07-09T05:41:49;18.00;99.90
14192;DHT22;7177;48.572;7.838;2022-07-09T05:44:15;18.30;99.90
14192;DHT22;7177;48.572;7.838;2022-07-09T05:46:41;18.40;99.90
14192;DHT22;7177;48.572;7.838;2022-07-09T05:49:06;18.50;99.90
14192;DHT22;7177;48.572;7.838;2022-07-09T05:51:33;18.70;99.90
14192;DHT22;7177;48.572;7.838;2022-07-09T05:53:58;18.80;99.90
14192;DHT22;7177;48.572;7.838;2022-07-09T05:56:24;19.00;99.90
14192;DHT22;7177;48.572;7.838;2022-07-09T05:58:50;19.10;99.90
14192;DHT22;7177;48.572;7.838;2022-07-09T06:01:15;19.20;99.90
14192;DHT22;7177;48.572;7.838;2022-07-09T06:03:41;19.40;99.90
14192;DHT22;7177;48.572;7.838;2022-07-09T06:06:07;19.50;99.90
14192;DHT22;7177;48.572;7.838;2022-07-09T06:08:33;19.70;99.90
14192;DHT22;7177;48.572;7.838;2022-07-09T06:10:59;19.90;99.90
14192;DHT22;7177;48.572;7.838;2022-07-09T06:13:25;19.90;99.90
14192;DHT22;7177;48.572;7.838;2022-07-09T06:15:52;20.10;99.90
14192;DHT22;7177;48.572;7.838;2022-07-09T06:18:18;20.10;99.90
14192;DHT22;7177;48.572;7.838;2022-07-09T06:20:43;19.90;99.90
14192;DHT22;7177;48.572;7.838;2022-07-09T06:23:09;19.70;99.90
14192;DHT22;7177;48.572;7.838;2022-07-09T06:25:35;19.70;99.90
14192;DHT22;7177;48.572;7.838;2022-07-09T06:28:01;19.50;99.90
14192;DHT22;7177;48.572;7.838;2022-07-09T06:30:26;19.70;99.90
14192;DHT22;7177;48.572;7.838;2022-07-09T06:32:52;20.00;99.90
14192;DHT22;7177;48.572;7.838;2022-07-09T06:35:17;19.90;99.90
14192;DHT22;7177;48.572;7.838;2022-07-09T06:37:43;19.80;99.90
14192;DHT22;7177;48.572;7.838;2022-07-09T06:40:09;20.00;99.90
14192;DHT22;7177;48.572;7.838;2022-07-09T06:42:35;20.30;99.90
14192;DHT22;7177;48.572;7.838;2022-07-09T06:45:01;20.40;99.90
14192;DHT22;7177;48.572;7.838;2022-07-09T06:47:26;20.70;99.90
14192;DHT22;7177;48.572;7.838;2022-07-09T06:49:52;20.90;99.90
14192;DHT22;7177;48.572;7.838;2022-07-09T06:52:17;21.20;99.90
14192;DHT22;7177;48.572;7.838;2022-07-09T06:54:43;21.40;99.90
14192;DHT22;7177;48.572;7.838;2022-07-09T06:57:08;21.60;99.90
14192;DHT22;7177;48.572;7.838;2022-07-09T06:59:35;21.80;99.90
14192;DHT22;7177;48.572;7.838;2022-07-09T07:02:01;22.10;99.90
14192;DHT22;7177;48.572;7.838;2022-07-09T07:04:27;22.30;99.90
14192;DHT22;7177;48.572;7.838;2022-07-09T07:06:52;22.30;99.90
14192;DHT22;7177;48.572;7.838;2022-07-09T07:09:18;22.70;99.90
14192;DHT22;7177;48.572;7.838;2022-07-09T07:11:45;22.90;99.90
14192;DHT22;7177;48.572;7.838;2022-07-09T07:14:11;22.90;99.90
14192;DHT22;7177;48.572;7.838;2022-07-09T07:16:36;23.10;99.90
14192;DHT22;7177;48.572;7.838;2022-07-09T07:19:02;23.40;99.90
14192;DHT22;7177;48.572;7.838;2022-07-09T07:21:27;23.50;99.90
14192;DHT22;7177;48.572;7.838;2022-07-09T07:23:53;23.50;99.90
14192;DHT22;7177;48.572;7.838;2022-07-09T07:26:18;23.30;99.90
14192;DHT22;7177;48.572;7.838;2022-07-09T07:28:44;23.50;99.90
14192;DHT22;7177;48.572;7.838;2022-07-09T07:31:09;23.70;99.90
14192;DHT22;7177;48.572;7.838;2022-07-09T07:33:35;23.80;99.90
14192;DHT22;7177;48.572;7.838;2022-07-09T07:36:00;24.00;99.90
14192;DHT22;7177;48.572;7.838;2022-07-09T07:38:26;24.30;99.90
14192;DHT22;7177;48.572;7.838;2022-07-09T07:40:53;24.40;99.90
14192;DHT22;7177;48.572;7.838;2022-07-09T07:43:19;24.80;99.90
14192;DHT22;7177;48.572;7.838;2022-07-09T07:45:45;24.80;99.90
14192;DHT22;7177;48.572;7.838;2022-07-09T07:48:10;25.00;99.90
14192;DHT22;7177;48.572;7.838;2022-07-09T07:50:36;25.10;99.90
14192;DHT22;7177;48.572;7.838;2022-07-09T07:53:05;25.30;99.90
14192;DHT22;7177;48.572;7.838;2022-07-09T07:55:30;25.40;99.90
14192;DHT22;7177;48.572;7.838;2022-07-09T07:57:56;25.20;99.90
14192;DHT22;7177;48.572;7.838;2022-07-09T08:00:21;25.10;99.90
14192;DHT22;7177;48.572;7.838;2022-07-09T08:02:47;25.40;99.90
14192;DHT22;7177;48.572;7.838;2022-07-09T08:05:13;25.90;99.90
14192;DHT22;7177;48.572;7.838;2022-07-09T08:07:39;26.10;99.90
14192;DHT22;7177;48.572;7.838;2022-07-09T08:10:05;26.30;99.90
14192;DHT22;7177;48.572;7.838;2022-07-09T08:12:31;26.40;99.90
14192;DHT22;7177;48.572;7.838;2022-07-09T08:14:56;26.70;99.70
14192;DHT22;7177;48.572;7.838;2022-07-09T08:17:22;27.00;98.80
14192;DHT22;7177;48.572;7.838;2022-07-09T08:19:48;26.90;98.90
14192;DHT22;7177;48.572;7.838;2022-07-09T08:22:13;27.00;99.20
14192;DHT22;7177;48.572;7.838;2022-07-09T08:24:39;27.30;98.70
14192;DHT22;7177;48.572;7.838;2022-07-09T08:27:04;27.60;97.30
14192;DHT22;7177;48.572;7.838;2022-07-09T08:29:30;27.70;97.70
14192;DHT22;7177;48.572;7.838;2022-07-09T08:31:55;28.00;97.00
14192;DHT22;7177;48.572;7.838;2022-07-09T08:34:21;28.00;96.80
14192;DHT22;7177;48.572;7.838;2022-07-09T08:36:47;27.90;96.50
14192;DHT22;7177;48.572;7.838;2022-07-09T08:39:12;28.20;95.90
14192;DHT22;7177;48.572;7.838;2022-07-09T08:41:38;28.40;96.00
14192;DHT22;7177;48.572;7.838;2022-07-09T08:44:04;28.60;94.80
14192;DHT22;7177;48.572;7.838;2022-07-09T08:46:32;28.80;94.30
14192;DHT22;7177;48.572;7.838;2022-07-09T08:48:57;28.70;94.80
14192;DHT22;7177;48.572;7.838;2022-07-09T08:51:24;28.50;93.50
14192;DHT22;7177;48.572;7.838;2022-07-09T08:53:53;28.20;93.60
14192;DHT22;7177;48.572;7.838;2022-07-09T08:56:19;28.10;93.10
14192;DHT22;7177;48.572;7.838;2022-07-09T08:58:44;28.00;93.60
14192;DHT22;7177;48.572;7.838;2022-07-09T09:01:13;27.90;93.30
14192;DHT22;7177;48.572;7.838;2022-07-09T09:03:39;28.10;92.70
14192;DHT22;7177;48.572;7.838;2022-07-09T09:06:08;28.40;92.60
14192;DHT22;7177;48.572;7.838;2022-07-09T09:08:41;28.80;91.40
14192;DHT22;7177;48.572;7.838;2022-07-09T09:11:13;29.20;92.30
14192;DHT22;7177;48.572;7.838;2022-07-09T09:13:43;29.40;89.80
14192;DHT22;7177;48.572;7.838;2022-07-09T09:16:10;29.10;89.30
14192;DHT22;7177;48.572;7.838;2022-07-09T09:18:43;29.30;89.80
14192;DHT22;7177;48.572;7.838;2022-07-09T09:21:10;29.60;88.70
14192;DHT22;7177;48.572;7.838;2022-07-09T09:23:41;29.90;89.00
14192;DHT22;7177;48.572;7.838;2022-07-09T09:26:15;30.10;88.60
14192;DHT22;7177;48.572;7.838;2022-07-09T09:28:55;30.50;82.20
14192;DHT22;7177;48.572;7.838;2022-07-09T09:31:28;30.50;75.60
14192;DHT22;7177;48.572;7.838;2022-07-09T09:33:55;30.20;78.00
14192;DHT22;7177;48.572;7.838;2022-07-09T09:39:16;29.70;79.20
14192;DHT22;7177;48.572;7.838;2022-07-09T09:41:50;30.10;79.50
14192;DHT22;7177;48.572;7.838;2022-07-09T09:44:19;30.50;77.20
14192;DHT22;7177;48.572;7.838;2022-07-09T09:46:46;31.00;76.00
14192;DHT22;7177;48.572;7.838;2022-07-09T09:49:14;31.50;75.60
14192;DHT22;7177;48.572;7.838;2022-07-09T09:51:49;31.60;74.70
14192;DHT22;7177;48.572;7.838;2022-07-09T09:54:16;31.60;75.10
14192;DHT22;7177;48.572;7.838;2022-07-09T09:56:42;31.70;73.70
14192;DHT22;7177;48.572;7.838;2022-07-09T09:59:09;31.50;71.10
14192;DHT22;7177;48.572;7.838;2022-07-09T10:01:35;31.30;74.90
14192;DHT22;7177;48.572;7.838;2022-07-09T10:04:01;31.20;74.10
14192;DHT22;7177;48.572;7.838;2022-07-09T10:06:27;31.50;71.20
14192;DHT22;7177;48.572;7.838;2022-07-09T10:08:54;31.80;71.80
14192;DHT22;7177;48.572;7.838;2022-07-09T10:11:20;32.00;72.10
14192;DHT22;7177;48.572;7.838;2022-07-09T10:13:53;32.10;67.20
14192;DHT22;7177;48.572;7.838;2022-07-09T10:16:41;32.30;68.90
14192;DHT22;7177;48.572;7.838;2022-07-09T10:19:06;32.50;67.20
14192;DHT22;7177;48.572;7.838;2022-07-09T10:21:38;32.20;68.00
14192;DHT22;7177;48.572;7.838;2022-07-09T10:24:10;31.80;66.90
14192;DHT22;7177;48.572;7.838;2022-07-09T10:26:37;31.80;68.60
14192;DHT22;7177;48.572;7.838;2022-07-09T10:29:24;31.80;67.90
14192;DHT22;7177;48.572;7.838;2022-07-09T10:31:51;32.40;67.00
14192;DHT22;7177;48.572;7.838;2022-07-09T10:36:59;32.80;66.10
14192;DHT22;7177;48.572;7.838;2022-07-09T10:39:25;33.10;65.30
14192;DHT22;7177;48.572;7.838;2022-07-09T10:42:01;33.40;65.40
14192;DHT22;7177;48.572;7.838;2022-07-09T10:44:37;33.50;62.30
14192;DHT22;7177;48.572;7.838;2022-07-09T10:47:06;33.60;62.10
14192;DHT22;7177;48.572;7.838;2022-07-09T10:49:35;33.20;61.60
14192;DHT22;7177;48.572;7.838;2022-07-09T10:52:03;32.80;64.00
14192;DHT22;7177;48.572;7.838;2022-07-09T10:54:29;32.90;64.30
14192;DHT22;7177;48.572;7.838;2022-07-09T10:56:54;32.70;63.70
14192;DHT22;7177;48.572;7.838;2022-07-09T10:59:21;32.50;63.70
14192;DHT22;7177;48.572;7.838;2022-07-09T11:01:47;32.60;62.80
14192;DHT22;7177;48.572;7.838;2022-07-09T11:04:30;33.00;61.80
14192;DHT22;7177;48.572;7.838;2022-07-09T11:06:55;33.10;61.40
14192;DHT22;7177;48.572;7.838;2022-07-09T11:09:22;33.50;59.50
14192;DHT22;7177;48.572;7.838;2022-07-09T11:11:47;33.60;57.10
14192;DHT22;7177;48.572;7.838;2022-07-09T11:14:13;33.30;60.60
14192;DHT22;7177;48.572;7.838;2022-07-09T11:16:39;33.10;57.30
14192;DHT22;7177;48.572;7.838;2022-07-09T11:19:18;33.20;58.70
14192;DHT22;7177;48.572;7.838;2022-07-09T11:21:44;33.60;59.70
14192;DHT22;7177;48.572;7.838;2022-07-09T11:26:39;33.70;58.00
14192;DHT22;7177;48.572;7.838;2022-07-09T11:29:07;33.90;59.20
14192;DHT22;7177;48.572;7.838;2022-07-09T11:31:34;34.00;58.10
14192;DHT22;7177;48.572;7.838;2022-07-09T11:34:00;34.00;58.70
14192;DHT22;7177;48.572;7.838;2022-07-09T11:36:50;33.90;55.20
14192;DHT22;7177;48.572;7.838;2022-07-09T11:39:26;33.50;56.60
14192;DHT22;7177;48.572;7.838;2022-07-09T11:41:53;33.40;58.60
14192;DHT22;7177;48.572;7.838;2022-07-09T11:44:32;33.00;58.90
14192;DHT22;7177;48.572;7.838;2022-07-09T11:47:05;32.30;57.80
14192;DHT22;7177;48.572;7.838;2022-07-09T11:52:16;31.80;60.00
14192;DHT22;7177;48.572;7.838;2022-07-09T11:55:16;32.10;60.50
14192;DHT22;7177;48.572;7.838;2022-07-09T11:57:39;32.20;59.70
14192;DHT22;7177;48.572;7.838;2022-07-09T12:00:19;32.00;61.60
14192;DHT22;7177;48.572;7.838;2022-07-09T12:02:45;32.70;61.00
14192;DHT22;7177;48.572;7.838;2022-07-09T12:05:11;32.60;60.00
14192;DHT22;7177;48.572;7.838;2022-07-09T12:07:36;32.70;58.30
14192;DHT22;7177;48.572;7.838;2022-07-09T12:10:09;32.60;58.70
14192;DHT22;7177;48.572;7.838;2022-07-09T12:12:36;33.20;57.50
14192;DHT22;7177;48.572;7.838;2022-07-09T12:15:04;33.20;58.00
14192;DHT22;7177;48.572;7.838;2022-07-09T12:17:31;33.10;57.20
14192;DHT22;7177;48.572;7.838;2022-07-09T12:19:58;33.30;58.40
14192;DHT22;7177;48.572;7.838;2022-07-09T12:22:24;34.00;58.20
14192;DHT22;7177;48.572;7.838;2022-07-09T12:24:52;34.30;56.60
14192;DHT22;7177;48.572;7.838;2022-07-09T12:27:18;34.10;56.30
14192;DHT22;7177;48.572;7.838;2022-07-09T12:29:45;34.10;56.80
14192;DHT22;7177;48.572;7.838;2022-07-09T12:32:11;33.30;57.80
14192;DHT22;7177;48.572;7.838;2022-07-09T12:34:36;33.20;58.00
14192;DHT22;7177;48.572;7.838;2022-07-09T12:37:02;33.10;57.90
14192;DHT22;7177;48.572;7.838;2022-07-09T12:39:28;33.50;58.00
14192;DHT22;7177;48.572;7.838;2022-07-09T12:41:54;34.10;57.80
14192;DHT22;7177;48.572;7.838;2022-07-09T12:44:19;34.40;57.60
14192;DHT22;7177;48.572;7.838;2022-07-09T12:46:45;34.70;57.10
14192;DHT22;7177;48.572;7.838;2022-07-09T12:49:10;34.10;55.30
14192;DHT22;7177;48.572;7.838;2022-07-09T12:51:36;33.90;52.30
14192;DHT22;7177;48.572;7.838;2022-07-09T12:54:01;33.50;54.00
14192;DHT22;7177;48.572;7.838;2022-07-09T12:56:27;32.90;55.60
14192;DHT22;7177;48.572;7.838;2022-07-09T12:58:53;32.70;55.30
14192;DHT22;7177;48.572;7.838;2022-07-09T13:01:18;32.60;55.50
14192;DHT22;7177;48.572;7.838;2022-07-09T13:03:44;32.30;55.30
14192;DHT22;7177;48.572;7.838;2022-07-09T13:06:10;33.30;55.80
14192;DHT22;7177;48.572;7.838;2022-07-09T13:08:54;33.70;53.90
14192;DHT22;7177;48.572;7.838;2022-07-09T13:11:20;34.00;56.10
14192;DHT22;7177;48.572;7.838;2022-07-09T13:13:46;34.20;52.00
14192;DHT22;7177;48.572;7.838;2022-07-09T13:16:11;34.00;52.20
14192;DHT22;7177;48.572;7.838;2022-07-09T13:18:37;34.10;55.10
14192;DHT22;7177;48.572;7.838;2022-07-09T13:21:03;34.10;55.10
14192;DHT22;7177;48.572;7.838;2022-07-09T13:23:28;34.40;54.90
14192;DHT22;7177;48.572;7.838;2022-07-09T13:25:54;34.70;52.80
14192;DHT22;7177;48.572;7.838;2022-07-09T13:28:19;35.10;54.80
14192;DHT22;7177;48.572;7.838;2022-07-09T13:30:45;35.20;54.70
14192;DHT22;7177;48.572;7.838;2022-07-09T13:33:10;35.20;55.40
14192;DHT22;7177;48.572;7.838;2022-07-09T13:35:36;35.30;53.90
14192;DHT22;7177;48.572;7.838;2022-07-09T13:38:02;35.10;53.70
14192;DHT22;7177;48.572;7.838;2022-07-09T13:40:28;35.30;53.50
14192;DHT22;7177;48.572;7.838;2022-07-09T13:42:53;35.20;52.90
14192;DHT22;7177;48.572;7.838;2022-07-09T13:45:19;35.00;52.40
14192;DHT22;7177;48.572;7.838;2022-07-09T13:47:44;34.50;54.00
14192;DHT22;7177;48.572;7.838;2022-07-09T13:50:10;34.50;54.60
14192;DHT22;7177;48.572;7.838;2022-07-09T13:52:35;33.60;55.10
14192;DHT22;7177;48.572;7.838;2022-07-09T13:55:01;33.50;55.90
14192;DHT22;7177;48.572;7.838;2022-07-09T13:57:26;33.10;55.80
14192;DHT22;7177;48.572;7.838;2022-07-09T13:59:52;33.00;55.90
14192;DHT22;7177;48.572;7.838;2022-07-09T14:02:17;33.00;56.50
14192;DHT22;7177;48.572;7.838;2022-07-09T14:04:43;32.60;57.50
14192;DHT22;7177;48.572;7.838;2022-07-09T14:07:08;32.00;58.80
14192;DHT22;7177;48.572;7.838;2022-07-09T14:09:34;31.90;58.10
14192;DHT22;7177;48.572;7.838;2022-07-09T14:12:00;31.90;58.50
14192;DHT22;7177;48.572;7.838;2022-07-09T14:14:25;32.40;58.10
14192;DHT22;7177;48.572;7.838;2022-07-09T14:16:51;33.30;56.70
14192;DHT22;7177;48.572;7.838;2022-07-09T14:19:16;33.70;54.00
14192;DHT22;7177;48.572;7.838;2022-07-09T14:21:42;33.60;56.10
14192;DHT22;7177;48.572;7.838;2022-07-09T14:24:07;33.70;56.10
14192;DHT22;7177;48.572;7.838;2022-07-09T14:26:34;33.90;54.90
14192;DHT22;7177;48.572;7.838;2022-07-09T14:29:00;34.30;54.60
14192;DHT22;7177;48.572;7.838;2022-07-09T14:31:26;34.30;55.20
14192;DHT22;7177;48.572;7.838;2022-07-09T14:33:52;34.20;53.60
14192;DHT22;7177;48.572;7.838;2022-07-09T14:36:19;34.10;53.90
14192;DHT22;7177;48.572;7.838;2022-07-09T14:38:45;33.80;56.90
14192;DHT22;7177;48.572;7.838;2022-07-09T14:41:10;33.70;56.90
14192;DHT22;7177;48.572;7.838;2022-07-09T14:43:36;33.80;56.90
14192;DHT22;7177;48.572;7.838;2022-07-09T14:46:06;33.80;54.80
14192;DHT22;7177;48.572;7.838;2022-07-09T14:48:31;33.80;55.30
14192;DHT22;7177;48.572;7.838;2022-07-09T14:53:23;33.10;56.80
14192;DHT22;7177;48.572;7.838;2022-07-09T14:55:48;33.60;55.60
14192;DHT22;7177;48.572;7.838;2022-07-09T14:58:14;33.60;56.20
14192;DHT22;7177;48.572;7.838;2022-07-09T15:00:39;34.10;56.50
14192;DHT22;7177;48.572;7.838;2022-07-09T15:03:05;34.30;54.40
14192;DHT22;7177;48.572;7.838;2022-07-09T15:05:31;34.60;55.00
14192;DHT22;7177;48.572;7.838;2022-07-09T15:07:56;34.60;55.20
14192;DHT22;7177;48.572;7.838;2022-07-09T15:10:22;34.50;55.60
14192;DHT22;7177;48.572;7.838;2022-07-09T15:12:47;34.50;54.20
14192;DHT22;7177;48.572;7.838;2022-07-09T15:15:13;34.60;54.80
14192;DHT22;7177;48.572;7.838;2022-07-09T15:17:38;34.60;56.00
14192;DHT22;7177;48.572;7.838;2022-07-09T15:20:04;33.90;56.40
14192;DHT22;7177;48.572;7.838;2022-07-09T15:22:30;33.20;56.40
14192;DHT22;7177;48.572;7.838;2022-07-09T15:24:56;32.70;57.80
14192;DHT22;7177;48.572;7.838;2022-07-09T15:27:22;31.90;57.90
14192;DHT22;7177;48.572;7.838;2022-07-09T15:29:47;31.70;58.70
14192;DHT22;7177;48.572;7.838;2022-07-09T15:32:13;31.80;58.90
14192;DHT22;7177;48.572;7.838;2022-07-09T15:34:40;31.80;58.90
14192;DHT22;7177;48.572;7.838;2022-07-09T15:37:07;31.80;59.30
14192;DHT22;7177;48.572;7.838;2022-07-09T15:39:33;31.50;57.90
14192;DHT22;7177;48.572;7.838;2022-07-09T15:41:58;31.50;58.50
14192;DHT22;7177;48.572;7.838;2022-07-09T15:44:24;30.60;59.10
14192;DHT22;7177;48.572;7.838;2022-07-09T15:46:49;30.60;59.80
14192;DHT22;7177;48.572;7.838;2022-07-09T15:49:15;31.50;58.80
14192;DHT22;7177;48.572;7.838;2022-07-09T15:51:41;32.10;60.00
14192;DHT22;7177;48.572;7.838;2022-07-09T15:54:07;32.50;57.00
14192;DHT22;7177;48.572;7.838;2022-07-09T15:56:32;32.70;56.20
14192;DHT22;7177;48.572;7.838;2022-07-09T15:58:58;32.70;56.80
14192;DHT22;7177;48.572;7.838;2022-07-09T16:01:23;32.80;56.30
14192;DHT22;7177;48.572;7.838;2022-07-09T16:03:51;32.90;56.50
14192;DHT22;7177;48.572;7.838;2022-07-09T16:06:16;32.80;55.80
14192;DHT22;7177;48.572;7.838;2022-07-09T16:08:42;32.80;56.40
14192;DHT22;7177;48.572;7.838;2022-07-09T16:11:08;33.00;57.10